Terminal Aerodrome Forecast
Issued by NWS Tampa Bay Area, FL

Home | Current Version | Previous Version | Text Only | Print | Product List | Glossary On
Versions: 1 2 3 4 5 6 7 8 9 10 11 12 13 14 15 16
000
FTUS42 KTBW 171136
TAFFMY
TAF
KFMY 171136Z 1712/1812 09005KT P6SM FEW030 BKN250
     FM171400 12009KT P6SM SCT035 SCT250
     FM172000 21007KT P6SM BKN050
     FM180000 VRB04KT P6SM SCT060
     FM180900 VRB03KT 4SM BR FEW005 SCT050=

USA.gov is the U.S. government's official web portal to all federal, state and local government web resources and services.